createdAt,value
2023-04-05T00:00:51.597Z,100030.24
2023-04-05T00:01:54.237Z,100031.11
2023-04-05T00:02:57.721Z,100026.80
2023-04-05T00:04:00.364Z,100024.98
2023-04-05T00:05:03.305Z,100016.22
2023-04-05T00:06:07.127Z,100024.89
2023-04-05T00:07:09.342Z,100023.07
2023-04-05T00:08:11.474Z,100028.34
2023-04-05T00:09:13.844Z,100031.80
2023-04-05T00:10:16.348Z,100025.75
2023-04-05T00:11:18.405Z,100019.53
2023-04-05T00:12:20.786Z,100017.72
2023-04-05T00:13:23.528Z,100013.31
2023-04-05T00:14:25.676Z,100009.81
2023-04-05T00:15:27.915Z,100014.17
2023-04-05T00:16:30.047Z,100005.36
2023-04-05T00:17:32.248Z,100008.13
2023-04-05T00:18:35.821Z,100003.73
2023-04-05T00:19:37.930Z,100006.45
2023-04-05T00:20:40.372Z,100009.30
2023-04-05T00:21:43.144Z,100017.98
2023-04-05T00:22:45.296Z,100010.20
2023-04-05T00:23:48.467Z,100014.56
2023-04-05T00:24:51.117Z,100010.99
2023-04-05T00:25:53.362Z,100010.20
2023-04-05T00:26:55.621Z,100014.48
2023-04-05T00:27:59.529Z,100005.84
2023-04-05T00:29:01.892Z,100004.94
2023-04-05T00:30:05.418Z,100001.45
2023-04-05T00:31:08.156Z,100000.45
2023-04-05T00:32:10.760Z,100010.99
2023-04-05T00:33:12.979Z,100012.63
2023-04-05T00:34:15.229Z,100012.63
2023-04-05T00:35:18.244Z,100003.91
2023-04-05T00:36:21.529Z,100003.82
2023-04-05T00:37:24.468Z,99995.01
2023-04-05T00:38:26.825Z,100009.17
2023-04-05T00:39:29.618Z,100004.86
2023-04-05T00:40:32.025Z,100002.31
2023-04-05T00:41:34.328Z,100002.19
2023-04-05T00:42:36.464Z,100001.40
2023-04-05T00:43:38.827Z,99993.50
2023-04-05T00:44:40.966Z,99999.55
2023-04-05T00:45:43.327Z,99994.28
2023-04-05T00:46:45.971Z,99994.28
2023-04-05T00:47:48.242Z,100002.31
2023-04-05T00:48:50.384Z,99995.31
2023-04-05T00:49:52.849Z,99993.59
2023-04-05T00:50:56.879Z,99991.77
2023-04-05T00:52:00.002Z,99994.55
2023-04-05T00:53:03.154Z,99991.95
2023-04-05T00:54:05.761Z,99989.37
2023-04-05T00:55:10.182Z,99994.67
2023-04-05T00:56:14.616Z,99988.50
2023-04-05T00:57:17.393Z,99992.05
2023-04-05T00:58:20.963Z,99992.95
2023-04-05T00:59:23.305Z,99986.08
2023-04-05T01:00:26.330Z,99985.96
2023-04-05T01:01:29.294Z,99979.14
2023-04-05T01:02:34.982Z,99977.37
2023-04-05T01:03:38.284Z,99976.50
2023-04-05T01:04:42.156Z,99981.00
2023-04-05T01:05:56.750Z,99973.96
2023-04-05T01:07:05.791Z,99976.45
2023-04-05T01:08:42.181Z,99972.92
2023-04-05T01:09:59.485Z,99973.66
2023-04-05T01:11:05.048Z,99967.44
2023-04-05T01:12:09.472Z,99971.84
2023-04-05T01:13:11.551Z,99970.12
2023-04-05T01:14:14.150Z,99965.72
2023-04-05T01:15:16.973Z,99967.53
2023-04-05T01:16:19.515Z,99958.84
2023-04-05T01:17:24.216Z,99956.22
2023-04-05T01:18:27.299Z,99954.41
2023-04-05T01:19:29.844Z,99947.37
2023-04-05T01:20:35.637Z,99951.73
2023-04-05T01:23:10.303Z,99950.59
2023-04-05T01:24:37.537Z,99952.86
2023-04-05T01:25:55.592Z,99950.13
2023-04-05T01:27:13.460Z,99948.36
2023-04-05T01:29:48.897Z,99948.66
2023-04-05T01:30:57.108Z,99952.64
2023-04-05T01:33:36.329Z,99953.05
2023-04-05T01:36:12.452Z,99950.33
2023-04-05T01:37:18.318Z,99957.91
2023-04-05T01:38:23.992Z,99952.64
2023-04-05T01:39:27.716Z,99956.05
2023-04-05T01:40:30.710Z,99955.19
2023-04-05T01:41:33.667Z,99956.09
2023-04-05T01:42:36.077Z,99952.50
2023-04-05T01:43:38.320Z,99952.55
2023-04-05T01:44:40.384Z,99956.81
2023-04-05T01:45:44.170Z,99955.91
2023-04-05T01:46:46.475Z,99944.52
2023-04-05T01:47:48.745Z,99941.92
2023-04-05T01:48:52.992Z,99940.20
2023-04-05T01:49:55.448Z,99941.11
2023-04-05T01:50:59.693Z,99940.20
2023-04-05T01:52:02.105Z,99931.44
2023-04-05T01:53:04.484Z,99948.10
2023-04-05T01:54:06.628Z,99948.01
2023-04-05T01:55:08.880Z,99947.23
2023-04-05T01:56:13.131Z,99943.65
2023-04-05T01:57:15.754Z,99938.39
2023-04-05T01:58:17.922Z,99933.16
2023-04-05T01:59:20.221Z,99927.03
2023-04-05T02:00:22.974Z,99931.30
2023-04-05T02:01:25.325Z,99939.11
2023-04-05T02:02:27.613Z,99939.20
2023-04-05T02:03:30.426Z,99940.92
2023-04-05T02:04:33.688Z,99944.47
2023-04-05T02:05:35.842Z,99935.66
2023-04-05T02:06:38.120Z,99940.87
2023-04-05T02:07:40.285Z,99934.75
2023-04-05T02:08:42.465Z,99925.94
2023-04-05T02:09:44.824Z,99926.03
2023-04-05T02:10:48.352Z,99920.77
2023-04-05T02:11:51.103Z,99919.95
2023-04-05T02:12:53.263Z,99916.41
2023-04-05T02:13:55.391Z,99907.51
2023-04-05T02:14:57.549Z,99909.33
2023-04-05T02:16:00.359Z,99911.05
2023-04-05T02:17:04.209Z,99912.65
2023-04-05T02:18:07.058Z,99916.31
2023-04-05T02:19:09.363Z,99910.02
2023-04-05T02:20:13.218Z,99910.92
2023-04-05T02:21:15.745Z,99918.91
2023-04-05T02:22:19.244Z,99915.33
2023-04-05T02:23:21.553Z,99918.05
2023-04-05T02:24:23.710Z,99924.17
2023-04-05T02:25:25.991Z,99913.69
2023-04-05T02:26:28.443Z,99918.05
2023-04-05T02:27:32.592Z,99914.78
2023-04-05T02:28:34.900Z,99904.16
2023-04-05T02:29:36.979Z,99903.25
2023-04-05T02:30:39.592Z,99904.16
2023-04-05T02:31:42.139Z,99895.44
2023-04-05T02:32:45.040Z,99906.79
2023-04-05T02:33:47.427Z,99896.16
2023-04-05T02:34:49.488Z,99906.79
2023-04-05T02:35:53.800Z,99904.16
2023-04-05T02:36:56.505Z,99899.84
2023-04-05T02:37:59.370Z,99903.34
2023-04-05T02:39:01.417Z,99899.94
2023-04-05T02:40:07.241Z,99898.12
2023-04-05T02:41:10.822Z,99898.12
2023-04-05T02:42:13.507Z,99899.08
2023-04-05T02:43:15.814Z,99892.09
2023-04-05T02:44:18.305Z,99893.03
2023-04-05T02:45:20.694Z,99892.22
2023-04-05T02:46:26.012Z,99893.22
2023-04-05T02:47:29.335Z,99888.86
2023-04-05T02:48:33.408Z,99894.13
2023-04-05T02:49:35.864Z,99902.93
2023-04-05T02:50:40.303Z,99891.45
2023-04-05T02:51:43.264Z,99893.13
2023-04-05T02:53:55.944Z,99878.69
2023-04-05T02:54:58.181Z,99877.33
2023-04-05T02:56:02.287Z,99869.43
2023-04-05T02:57:04.981Z,99862.44
2023-04-05T02:58:08.985Z,99862.44
2023-04-05T02:59:13.679Z,99865.98
2023-04-05T03:00:17.705Z,99852.87
2023-04-05T03:01:22.042Z,99861.63
2023-04-05T03:02:24.931Z,99858.09
2023-04-05T03:03:27.555Z,99860.72
2023-04-05T03:04:29.914Z,99872.11
2023-04-05T03:05:34.015Z,99874.80
2023-04-05T03:06:37.054Z,99875.61
2023-04-05T03:07:39.226Z,99876.42
2023-04-05T03:08:43.571Z,99878.14
2023-04-05T03:09:47.729Z,99876.42
2023-04-05T03:10:53.708Z,99880.83
2023-04-05T03:11:56.424Z,99875.61
2023-04-05T03:12:59.053Z,99877.47
2023-04-05T03:14:02.820Z,99866.08
2023-04-05T03:15:10.208Z,99873.98
2023-04-05T03:16:16.746Z,99865.22
2023-04-05T03:17:20.299Z,99863.45
2023-04-05T03:18:24.574Z,99859.95
2023-04-05T03:19:27.662Z,99873.98
2023-04-05T03:21:43.631Z,99858.73
2023-04-05T03:22:47.538Z,99873.25
2023-04-05T03:23:50.490Z,99864.45
2023-04-05T03:24:54.518Z,99861.77
2023-04-05T03:26:01.249Z,99862.73
2023-04-05T03:27:05.688Z,99860.91
2023-04-05T03:28:09.697Z,99864.58
2023-04-05T03:29:14.009Z,99871.53
2023-04-05T03:30:17.114Z,99865.36
2023-04-05T03:31:23.955Z,99867.08
2023-04-05T03:32:26.227Z,99871.44
2023-04-05T03:33:30.822Z,99874.88
2023-04-05T03:34:33.684Z,99872.30
2023-04-05T03:35:37.749Z,99869.71
2023-04-05T03:36:41.455Z,99871.53
2023-04-05T03:37:45.476Z,99876.70
2023-04-05T03:38:48.254Z,99874.93
2023-04-05T03:39:52.653Z,99881.02
2023-04-05T03:40:55.052Z,99870.48
2023-04-05T03:41:57.352Z,99874.80
2023-04-05T03:42:59.493Z,99873.02
2023-04-05T03:44:02.108Z,99873.88
2023-04-05T03:45:05.805Z,99871.25
2023-04-05T03:46:09.635Z,99865.17
2023-04-05T03:47:12.257Z,99867.80
2023-04-05T03:48:14.658Z,99870.44
2023-04-05T03:49:16.843Z,99869.53
2023-04-05T03:50:20.146Z,99867.80
2023-04-05T03:51:22.394Z,99875.70
2023-04-05T03:52:25.395Z,99875.65
2023-04-05T03:53:27.757Z,99878.33
2023-04-05T03:54:30.331Z,99883.64
2023-04-05T03:55:33.532Z,99875.79
2023-04-05T03:56:38.056Z,99874.98
2023-04-05T03:57:48.293Z,99874.93
2023-04-05T03:58:55.805Z,99883.69
2023-04-05T04:00:00.188Z,99878.37
2023-04-05T04:01:04.376Z,99882.78
2023-04-05T04:02:06.648Z,99891.59
2023-04-05T04:03:09.336Z,99884.59
2023-04-05T04:04:13.903Z,99888.05
2023-04-05T04:05:18.122Z,99887.14
2023-04-05T04:06:23.180Z,99883.59
2023-04-05T04:07:25.338Z,99881.88
2023-04-05T04:08:27.656Z,99887.09
2023-04-05T04:09:29.932Z,99880.97
2023-04-05T04:10:34.495Z,99889.72
2023-04-05T04:11:36.638Z,99888.95
2023-04-05T04:12:40.760Z,99889.91
2023-04-05T04:13:43.468Z,99893.41
2023-04-05T04:14:50.972Z,99890.77
2023-04-05T04:16:08.427Z,99880.37
2023-04-05T04:17:35.744Z,99883.78
2023-04-05T04:18:56.178Z,99880.37
2023-04-05T04:20:01.935Z,99881.97
2023-04-05T04:21:11.920Z,99875.84
2023-04-05T04:22:32.741Z,99882.92
2023-04-05T04:23:36.859Z,99885.63
2023-04-05T04:24:53.167Z,99883.00
2023-04-05T04:26:14.046Z,99881.15
2023-04-05T04:27:27.061Z,99873.25
2023-04-05T04:28:33.657Z,99871.53
2023-04-05T04:29:48.315Z,99875.20
2023-04-05T04:30:55.641Z,99876.06
2023-04-05T04:32:16.121Z,99864.67
2023-04-05T04:33:36.610Z,99869.94
2023-04-05T04:34:43.420Z,99880.46
2023-04-05T04:35:47.562Z,99867.25
2023-04-05T04:36:54.807Z,99869.02
2023-04-05T04:38:04.734Z,99869.84
2023-04-05T04:39:27.424Z,99862.85
2023-04-05T04:41:56.057Z,99872.88
2023-04-05T04:43:00.188Z,99870.58
2023-04-05T04:44:10.501Z,99864.35
2023-04-05T04:45:32.623Z,99868.61
2023-04-05T04:47:52.207Z,99868.30
2023-04-05T04:48:56.624Z,99866.13
2023-04-05T04:50:07.590Z,99867.80
2023-04-05T04:51:10.225Z,99863.40
2023-04-05T04:52:12.272Z,99863.40
2023-04-05T04:53:15.623Z,99865.89
2023-04-05T04:54:18.214Z,99864.16
2023-04-05T04:55:21.009Z,99872.97
2023-04-05T04:56:23.229Z,99863.26
2023-04-05T04:57:25.821Z,99865.08
2023-04-05T04:58:29.192Z,99868.57
2023-04-05T04:59:33.331Z,99868.57
2023-04-05T05:00:42.346Z,99863.26
2023-04-05T05:01:45.508Z,99864.16
2023-04-05T05:02:47.950Z,99865.03
2023-04-05T05:03:52.013Z,99858.80
2023-04-05T05:04:58.866Z,99861.44
2023-04-05T05:06:01.022Z,99862.34
2023-04-05T05:07:05.436Z,99864.90
2023-04-05T05:08:08.830Z,99868.39
2023-04-05T05:09:12.739Z,99868.34
2023-04-05T05:10:17.203Z,99868.39
2023-04-05T05:11:19.344Z,99872.75
2023-04-05T05:12:21.967Z,99863.03
2023-04-05T05:13:24.200Z,99866.58
2023-04-05T05:14:26.421Z,99863.94
2023-04-05T05:15:28.461Z,99866.58
2023-04-05T05:16:30.698Z,99871.03
2023-04-05T05:17:32.938Z,99864.90
2023-04-05T05:18:34.855Z,99863.94
2023-04-05T05:19:37.173Z,99865.66
2023-04-05T05:20:39.724Z,99870.88
2023-04-05T05:21:42.463Z,99856.86
2023-04-05T05:22:44.523Z,99861.16
2023-04-05T05:23:47.227Z,99864.56
2023-04-05T05:24:49.402Z,99863.70
2023-04-05T05:25:59.541Z,99864.52
2023-04-05T05:27:01.667Z,99863.61
2023-04-05T05:28:03.991Z,99855.70
2023-04-05T05:29:06.243Z,99859.20
2023-04-05T05:30:12.177Z,99856.56
2023-04-05T05:31:14.412Z,99855.70
2023-04-05T05:32:17.112Z,99851.39
2023-04-05T05:33:19.254Z,99849.58
2023-04-05T05:34:22.023Z,99847.85
2023-04-05T05:35:29.275Z,99847.91
2023-04-05T05:36:31.966Z,99850.54
2023-04-05T05:37:34.245Z,99853.08
2023-04-05T05:38:36.947Z,99857.48
2023-04-05T05:39:39.428Z,99852.12
2023-04-05T05:40:42.026Z,99862.61
2023-04-05T05:41:44.452Z,99852.08
2023-04-05T05:42:46.617Z,99861.83
2023-04-05T05:43:49.177Z,99859.12
2023-04-05T05:44:51.353Z,99860.11
2023-04-05T05:45:53.517Z,99860.97
2023-04-05T05:46:56.578Z,99857.39
2023-04-05T05:47:58.801Z,99868.02
2023-04-05T05:49:01.579Z,99862.80
2023-04-05T05:50:04.436Z,99867.09
2023-04-05T05:51:06.688Z,99868.02
2023-04-05T05:52:09.056Z,99859.25
2023-04-05T05:53:11.109Z,99868.02
2023-04-05T05:54:13.211Z,99865.25
2023-04-05T05:55:15.441Z,99856.56
2023-04-05T05:56:18.300Z,99856.56
2023-04-05T05:57:20.475Z,99860.97
2023-04-05T05:58:22.681Z,99857.39
2023-04-05T05:59:24.915Z,99859.98
2023-04-05T06:00:27.241Z,99860.89
2023-04-05T06:01:29.325Z,99857.25
2023-04-05T06:02:31.494Z,99854.72
2023-04-05T06:03:33.566Z,99854.61
2023-04-05T06:04:36.382Z,99858.06
2023-04-05T06:05:38.477Z,99848.39
2023-04-05T06:06:41.048Z,99852.70
2023-04-05T06:07:43.780Z,99861.41
2023-04-05T06:08:46.896Z,99853.56
2023-04-05T06:09:49.114Z,99856.14
2023-04-05T06:10:52.607Z,99850.88
2023-04-05T06:11:56.742Z,99854.37
2023-04-05T06:12:59.171Z,99857.97
2023-04-05T06:14:01.739Z,99850.97
2023-04-05T06:15:04.576Z,99854.37
2023-04-05T06:16:08.120Z,99853.38
2023-04-05T06:17:10.285Z,99856.09
2023-04-05T06:18:13.977Z,99855.18
2023-04-05T06:19:16.008Z,99853.33
2023-04-05T06:20:18.688Z,99848.06
2023-04-05T06:21:20.917Z,99852.41
2023-04-05T06:22:23.019Z,99841.73
2023-04-05T06:23:25.154Z,99846.08
2023-04-05T06:24:29.350Z,99850.48
2023-04-05T06:25:31.534Z,99846.89
2023-04-05T06:26:35.817Z,99848.72
2023-04-05T06:27:38.476Z,99844.31
2023-04-05T06:28:40.525Z,99843.34
2023-04-05T06:29:42.585Z,99833.63
2023-04-05T06:30:44.642Z,99838.80
2023-04-05T06:31:47.185Z,99834.48
2023-04-05T06:32:49.541Z,99832.67
2023-04-05T06:33:51.705Z,99829.27
2023-04-05T06:34:54.938Z,99834.53
2023-04-05T06:35:57.536Z,99828.22
2023-04-05T06:36:59.822Z,99829.94
2023-04-05T06:38:02.111Z,99827.20
2023-04-05T06:39:04.870Z,99823.66
2023-04-05T06:40:10.803Z,99824.46
2023-04-05T06:41:12.784Z,99825.33
2023-04-05T06:42:14.793Z,99820.00
2023-04-05T06:43:18.909Z,99822.50
2023-04-05T06:44:21.412Z,99826.86
2023-04-05T06:45:24.603Z,99821.59
2023-04-05T06:46:27.761Z,99821.53
2023-04-05T06:47:35.325Z,99832.13
2023-04-05T06:48:38.414Z,99833.84
2023-04-05T06:49:40.644Z,99831.16
2023-04-05T06:50:43.648Z,99833.75
2023-04-05T06:51:46.881Z,99823.20
2023-04-05T06:52:49.108Z,99823.20
2023-04-05T06:53:51.646Z,99825.78
2023-04-05T06:54:53.817Z,99824.82
2023-04-05T06:55:58.454Z,99824.82
2023-04-05T06:57:02.062Z,99822.13
2023-04-05T06:58:05.073Z,99831.81
2023-04-05T06:59:07.500Z,99825.68
2023-04-05T07:00:12.202Z,99822.08
2023-04-05T07:01:14.647Z,99831.76
2023-04-05T07:02:16.894Z,99827.21
2023-04-05T07:03:19.657Z,99833.43
2023-04-05T07:04:22.460Z,99822.89
2023-04-05T07:05:24.602Z,99829.84
2023-04-05T07:06:26.841Z,99823.72
2023-04-05T07:07:28.836Z,99825.44
2023-04-05T07:08:32.477Z,99828.98
2023-04-05T07:09:35.950Z,99828.02
2023-04-05T07:10:39.867Z,99835.88
2023-04-05T07:11:42.228Z,99836.73
2023-04-05T07:12:45.295Z,99827.91
2023-04-05T07:13:47.514Z,99837.55
2023-04-05T07:14:50.799Z,99834.91
2023-04-05T07:16:01.843Z,99832.33
2023-04-05T07:17:06.216Z,99831.46
2023-04-05T07:18:08.738Z,99835.02
2023-04-05T07:19:11.027Z,99832.33
2023-04-05T07:20:14.268Z,99836.73
2023-04-05T07:21:17.037Z,99833.19
2023-04-05T07:22:21.313Z,99831.46
2023-04-05T07:23:23.434Z,99830.50
2023-04-05T07:24:25.617Z,99827.80
2023-04-05T07:25:28.836Z,99826.84
2023-04-05T07:26:31.614Z,99832.97
2023-04-05T07:27:33.721Z,99828.56
2023-04-05T07:28:36.544Z,99830.20
2023-04-05T07:29:39.782Z,99830.14
2023-04-05T07:30:42.425Z,99832.67
2023-04-05T07:31:44.532Z,99831.70
2023-04-05T07:32:46.848Z,99828.95
2023-04-05T07:33:49.079Z,99835.06
2023-04-05T07:34:51.264Z,99829.73
2023-04-05T07:37:05.389Z,99824.96
2023-04-05T07:38:07.719Z,99827.16
2023-04-05T07:39:09.871Z,99832.43
2023-04-05T07:40:13.604Z,99830.52
2023-04-05T07:41:16.110Z,99833.09
2023-04-05T07:42:18.477Z,99825.07
2023-04-05T07:43:20.925Z,99832.87
2023-04-05T07:44:24.255Z,99826.69
2023-04-05T07:45:28.236Z,99824.84
2023-04-05T07:46:31.153Z,99831.84
2023-04-05T07:47:33.935Z,99822.06
2023-04-05T07:49:01.176Z,99824.59
2023-04-05T07:50:04.597Z,99819.31
2023-04-05T07:51:08.044Z,99821.90
2023-04-05T07:52:10.694Z,99827.12
2023-04-05T07:53:25.254Z,99820.13
2023-04-05T07:54:27.602Z,99823.51
2023-04-05T07:55:29.638Z,99823.39
2023-04-05T07:56:32.105Z,99825.03
2023-04-05T07:57:34.895Z,99827.67
2023-04-05T07:58:38.338Z,99824.11
2023-04-05T07:59:40.590Z,99816.19
2023-04-05T08:00:43.464Z,99824.11
2023-04-05T08:01:46.782Z,99826.69
2023-04-05T08:02:49.126Z,99818.72
2023-04-05T08:03:51.454Z,99830.99
2023-04-05T08:04:53.670Z,99822.16
2023-04-05T08:05:56.129Z,99834.33
2023-04-05T08:06:58.858Z,99832.55
2023-04-05T08:08:00.965Z,99828.19
2023-04-05T08:09:03.104Z,99832.48
2023-04-05T08:10:06.020Z,99830.62
2023-04-05T08:11:08.049Z,99827.00
2023-04-05T08:12:10.700Z,99827.86
2023-04-05T08:13:12.887Z,99829.59
2023-04-05T08:14:15.529Z,99831.31
2023-04-05T08:15:17.808Z,99831.19
2023-04-05T08:16:19.986Z,99827.52
2023-04-05T08:17:22.365Z,99822.95
2023-04-05T08:18:25.040Z,99824.49
2023-04-05T08:19:27.261Z,99831.49
2023-04-05T08:20:29.783Z,99840.33
2023-04-05T08:21:31.835Z,99828.85
2023-04-05T08:22:33.993Z,99839.47
2023-04-05T08:23:36.546Z,99841.13
2023-04-05T08:24:39.167Z,99842.05
2023-04-05T08:25:42.763Z,99838.38
2023-04-05T08:26:45.158Z,99847.92
2023-04-05T08:27:47.227Z,99846.95
2023-04-05T08:28:49.292Z,99850.39
2023-04-05T08:29:51.989Z,99841.55
2023-04-05T08:30:54.953Z,99845.84
2023-04-05T08:31:57.572Z,99839.70
2023-04-05T08:32:59.833Z,99849.30
2023-04-05T08:34:03.262Z,99851.02
2023-04-05T08:35:05.543Z,99845.58
2023-04-05T08:36:10.118Z,99850.00
2023-04-05T08:37:12.608Z,99848.16
2023-04-05T08:38:16.305Z,99854.45
2023-04-05T08:39:18.725Z,99851.72
2023-04-05T08:40:22.575Z,99852.79
2023-04-05T08:41:28.613Z,99853.44
2023-04-05T08:42:43.356Z,99852.52
2023-04-05T08:44:01.252Z,99860.44
2023-04-05T08:45:07.021Z,99849.88
2023-04-05T08:46:14.038Z,99844.48
2023-04-05T08:47:18.896Z,99849.76
2023-04-05T08:48:21.127Z,99848.78
2023-04-05T08:49:23.366Z,99858.42
2023-04-05T08:50:26.721Z,99853.94
2023-04-05T08:51:29.262Z,99843.31
2023-04-05T08:52:33.336Z,99842.39
2023-04-05T08:53:36.055Z,99847.68
2023-04-05T08:54:38.242Z,99843.22
2023-04-05T08:55:40.620Z,99840.58
2023-04-05T08:56:46.837Z,99850.11
2023-04-05T08:57:52.692Z,99845.68
2023-04-05T08:59:01.915Z,99852.75
2023-04-05T09:00:06.975Z,99851.77
2023-04-05T09:01:10.338Z,99850.84
2023-04-05T09:02:18.610Z,99845.56
2023-04-05T09:04:39.497Z,99841.59
2023-04-05T09:05:47.726Z,99842.24
2023-04-05T09:06:51.881Z,99842.30
2023-04-05T09:07:57.180Z,99840.52
2023-04-05T09:08:59.474Z,99843.96
2023-04-05T09:10:04.510Z,99842.18
2023-04-05T09:11:06.706Z,99840.40
2023-04-05T09:12:08.917Z,99843.84
2023-04-05T09:13:11.522Z,99848.14
2023-04-05T09:14:14.584Z,99848.08
2023-04-05T09:15:17.837Z,99842.00
2023-04-05T09:16:20.865Z,99838.44
2023-04-05T09:17:23.417Z,99840.22
2023-04-05T09:18:27.295Z,99836.59
2023-04-05T09:19:29.986Z,99841.02
2023-04-05T09:20:32.370Z,99837.52
2023-04-05T09:23:07.146Z,99835.94
2023-04-05T09:24:09.220Z,99839.23
2023-04-05T09:25:12.249Z,99833.89
2023-04-05T09:26:23.902Z,99838.31
2023-04-05T09:27:28.472Z,99832.87
2023-04-05T09:29:50.410Z,99836.86
2023-04-05T09:30:52.713Z,99829.52
2023-04-05T09:31:55.963Z,99829.37
2023-04-05T09:32:59.111Z,99823.09
2023-04-05T09:34:06.334Z,99827.46
2023-04-05T09:35:12.682Z,99825.62
2023-04-05T09:36:18.064Z,99827.34
2023-04-05T09:37:21.085Z,99829.91
2023-04-05T09:38:44.532Z,99828.94
2023-04-05T09:39:48.660Z,99828.77
2023-04-05T09:40:50.961Z,99828.77
2023-04-05T09:42:08.241Z,99832.22
2023-04-05T09:43:13.024Z,99834.06
2023-04-05T09:44:15.351Z,99830.49
2023-04-05T09:45:18.286Z,99827.85
2023-04-05T09:46:33.426Z,99833.08
2023-04-05T09:47:35.604Z,99832.15
2023-04-05T09:48:48.007Z,99826.80
2023-04-05T09:49:51.031Z,99830.24
2023-04-05T09:51:03.552Z,99831.96
2023-04-05T09:52:01.353Z,99828.39
2023-04-05T09:53:12.301Z,99837.19
2023-04-05T09:54:16.031Z,99828.39
2023-04-05T09:56:39.124Z,99824.28
2023-04-05T09:57:41.641Z,99823.05
2023-04-05T09:58:43.781Z,99817.53
2023-04-05T09:59:46.870Z,99820.97
2023-04-05T10:00:50.168Z,99820.84
2023-04-05T10:01:52.477Z,99811.99
2023-04-05T10:02:56.434Z,99820.72
2023-04-05T10:03:59.987Z,99818.87
2023-04-05T10:05:07.559Z,99817.87
2023-04-05T10:06:09.978Z,99816.86
2023-04-05T10:07:15.275Z,99816.79
2023-04-05T10:08:17.550Z,99810.52
2023-04-05T10:09:20.377Z,99814.88
2023-04-05T10:10:23.409Z,99820.03
2023-04-05T10:11:27.006Z,99812.03
2023-04-05T10:12:31.752Z,99810.19
2023-04-05T10:13:34.388Z,99818.02
2023-04-05T10:14:36.838Z,99813.52
2023-04-05T10:15:41.679Z,99819.61
2023-04-05T10:17:06.302Z,99820.27
2023-04-05T10:18:15.120Z,99821.06
2023-04-05T10:20:43.695Z,99820.19
2023-04-05T10:21:47.209Z,99812.76
2023-04-05T10:23:02.776Z,99813.62
2023-04-05T10:24:11.622Z,99817.05
2023-04-05T10:25:43.610Z,99814.41
2023-04-05T10:26:49.621Z,99815.20
2023-04-05T10:27:54.980Z,99812.42
2023-04-05T10:29:00.740Z,99811.50
2023-04-05T10:30:06.419Z,99808.84
2023-04-05T10:31:38.615Z,99814.90
2023-04-05T10:34:03.378Z,99811.40
2023-04-05T10:36:48.181Z,99805.18
2023-04-05T10:39:31.366Z,99807.55
2023-04-05T10:40:35.620Z,99814.19
2023-04-05T10:41:50.319Z,99813.19
2023-04-05T10:42:52.552Z,99807.83
2023-04-05T10:43:57.027Z,99810.33
2023-04-05T10:45:05.747Z,99806.62
2023-04-05T10:46:11.490Z,99807.38
2023-04-05T10:47:16.271Z,99817.83
2023-04-05T10:48:28.194Z,99802.80
2023-04-05T10:49:45.666Z,99813.31
2023-04-05T10:50:48.680Z,99805.31
2023-04-05T10:51:51.459Z,99811.46
2023-04-05T10:52:55.467Z,99807.88
2023-04-05T10:53:59.756Z,99811.36
2023-04-05T10:55:02.679Z,99811.36
2023-04-05T10:56:05.607Z,99807.78
2023-04-05T10:57:10.200Z,99807.78
2023-04-05T10:58:15.121Z,99807.70
2023-04-05T10:59:17.894Z,99812.90
2023-04-05T11:00:22.843Z,99811.97
2023-04-05T11:01:26.507Z,99811.22
2023-04-05T11:02:30.644Z,99808.56
2023-04-05T11:03:47.558Z,99808.47
2023-04-05T11:04:55.975Z,99812.90
2023-04-05T11:06:30.566Z,99804.88
2023-04-05T11:07:44.805Z,99804.88
2023-04-05T11:08:50.630Z,99802.17
2023-04-05T11:11:13.724Z,99808.75
2023-04-05T11:12:16.428Z,99804.88
2023-04-05T11:13:18.602Z,99809.18
2023-04-05T11:14:25.406Z,99804.60
2023-04-05T11:15:30.022Z,99809.83
2023-04-05T11:16:40.252Z,99813.19
2023-04-05T11:17:42.592Z,99813.09
2023-04-05T11:18:50.266Z,99810.30
2023-04-05T11:20:05.324Z,99807.44
2023-04-05T11:21:08.456Z,99810.80
2023-04-05T11:22:11.570Z,99809.69
2023-04-05T11:23:16.316Z,99807.83
2023-04-05T11:24:18.840Z,99805.96
2023-04-05T11:25:24.556Z,99810.40
2023-04-05T11:26:41.875Z,99804.09
2023-04-05T11:28:57.700Z,99804.12
2023-04-05T11:30:01.368Z,99796.79
2023-04-05T11:32:43.044Z,99796.02
2023-04-05T11:33:55.770Z,99793.81
2023-04-05T11:36:12.544Z,99791.39
2023-04-05T11:37:15.396Z,99784.94
2023-04-05T11:38:23.975Z,99798.18
2023-04-05T11:39:27.215Z,99785.72
2023-04-05T11:40:32.730Z,99791.88
2023-04-05T11:41:34.830Z,99791.88
2023-04-05T11:42:37.074Z,99788.37
2023-04-05T11:43:39.565Z,99794.45
2023-04-05T11:44:45.612Z,99785.57
2023-04-05T11:45:47.933Z,99789.16
2023-04-05T11:46:51.163Z,99786.50
2023-04-05T11:47:53.910Z,99788.30
2023-04-05T11:48:58.488Z,99787.28
2023-04-05T11:50:00.652Z,99793.38
2023-04-05T11:51:11.198Z,99784.38
2023-04-05T11:52:17.702Z,99787.81
2023-04-05T11:53:19.812Z,99786.88
2023-04-05T11:54:32.593Z,99789.38
2023-04-05T11:55:34.909Z,99790.23
2023-04-05T11:56:37.959Z,99786.58
2023-04-05T11:57:40.272Z,99781.20
2023-04-05T11:58:42.523Z,99782.92
2023-04-05T11:59:44.742Z,99792.48
2023-04-05T12:00:59.838Z,99784.45
2023-04-05T12:02:03.941Z,99778.14
2023-04-05T12:03:06.142Z,99786.88
2023-04-05T12:04:08.614Z,99789.45
2023-04-05T12:05:10.745Z,99784.93
2023-04-05T12:06:13.595Z,99784.78
2023-04-05T12:07:18.702Z,99783.66
2023-04-05T12:08:21.801Z,99780.93
2023-04-05T12:09:23.918Z,99776.33
2023-04-05T12:10:26.084Z,99781.63
2023-04-05T12:11:29.614Z,99778.05
2023-04-05T12:13:55.180Z,99773.65
2023-04-05T12:15:02.205Z,99771.66
2023-04-05T12:16:07.212Z,99773.95
2023-04-05T12:17:09.349Z,99772.87
2023-04-05T12:18:14.908Z,99768.42
2023-04-05T12:19:18.500Z,99766.47
2023-04-05T12:21:32.158Z,99769.23
2023-04-05T12:22:36.690Z,99767.22
2023-04-05T12:23:39.545Z,99765.34
2023-04-05T12:24:41.781Z,99768.77
2023-04-05T12:25:48.331Z,99766.98
2023-04-05T12:26:50.880Z,99771.27
2023-04-05T12:27:52.924Z,99760.81
2023-04-05T12:28:58.884Z,99767.67
2023-04-05T12:30:13.318Z,99770.33
2023-04-05T12:31:15.390Z,99762.45
2023-04-05T12:32:18.064Z,99767.67
2023-04-05T12:33:31.205Z,99765.80
2023-04-05T12:34:36.453Z,99760.50
2023-04-05T12:35:38.793Z,99755.97
2023-04-05T12:36:44.648Z,99751.41
2023-04-05T12:37:47.393Z,99767.17
2023-04-05T12:38:50.223Z,99756.72
2023-04-05T12:39:54.205Z,99750.39
2023-04-05T12:41:01.890Z,99752.19
2023-04-05T12:42:04.124Z,99744.23
2023-04-05T12:43:07.854Z,99749.53
2023-04-05T12:44:18.695Z,99743.45
2023-04-05T12:45:23.426Z,99746.88
2023-04-05T12:46:41.208Z,99746.95
2023-04-05T12:47:57.522Z,99742.52
2023-04-05T12:48:59.664Z,99748.59
2023-04-05T12:50:17.344Z,99746.80
2023-04-05T12:51:19.499Z,99749.37
2023-04-05T12:52:21.540Z,99747.50
2023-04-05T12:53:26.338Z,99737.73
2023-04-05T12:54:29.068Z,99742.97
2023-04-05T12:55:31.537Z,99731.41
2023-04-05T12:56:34.032Z,99736.72
2023-04-05T12:57:37.007Z,99735.00
2023-04-05T12:58:39.238Z,99739.38
2023-04-05T12:59:41.833Z,99746.39
2023-04-05T13:00:45.195Z,99746.31
2023-04-05T13:01:48.043Z,99735.50
2023-04-05T13:02:51.945Z,99745.95
2023-04-05T13:04:01.575Z,99738.00
2023-04-05T13:06:06.606Z,99733.63
2023-04-05T13:07:08.722Z,99732.44
2023-04-05T13:08:11.679Z,99734.94
2023-04-05T13:09:14.431Z,99735.67